sensor_id;sensor_type;location;lat;lon;timestamp;temperature;humidity
72320;SHT30;60269;52.502;16.732;2023-04-30T00:01:58;5.06;94.59
72320;SHT30;60269;52.502;16.732;2023-04-30T00:05:30;5.00;94.25
72320;SHT30;60269;52.502;16.732;2023-04-30T00:09:02;4.98;94.12
72320;SHT30;60269;52.502;16.732;2023-04-30T00:12:34;5.06;93.21
72320;SHT30;60269;52.502;16.732;2023-04-30T00:16:06;5.08;92.88
72320;SHT30;60269;52.502;16.732;2023-04-30T00:19:39;5.02;93.05
72320;SHT30;60269;52.502;16.732;2023-04-30T00:23:11;4.99;92.88
72320;SHT30;60269;52.502;16.732;2023-04-30T00:26:43;5.06;92.94
72320;SHT30;60269;52.502;16.732;2023-04-30T00:30:15;5.04;92.78
72320;SHT30;60269;52.502;16.732;2023-04-30T00:33:47;4.99;93.06
72320;SHT30;60269;52.502;16.732;2023-04-30T00:37:18;4.99;92.81
72320;SHT30;60269;52.502;16.732;2023-04-30T00:40:51;4.93;93.10
72320;SHT30;60269;52.502;16.732;2023-04-30T00:44:23;4.84;93.09
72320;SHT30;60269;52.502;16.732;2023-04-30T00:47:55;4.71;93.53
72320;SHT30;60269;52.502;16.732;2023-04-30T00:51:28;4.77;93.33
72320;SHT30;60269;52.502;16.732;2023-04-30T00:54:59;4.68;93.29
72320;SHT30;60269;52.502;16.732;2023-04-30T00:58:32;4.54;93.36
72320;SHT30;60269;52.502;16.732;2023-04-30T01:02:04;4.61;93.29
72320;SHT30;60269;52.502;16.732;2023-04-30T01:05:37;4.53;93.25
72320;SHT30;60269;52.502;16.732;2023-04-30T01:09:09;4.71;92.95
72320;SHT30;60269;52.502;16.732;2023-04-30T01:13:04;4.68;92.89
72320;SHT30;60269;52.502;16.732;2023-04-30T01:16:50;4.71;92.91
72320;SHT30;60269;52.502;16.732;2023-04-30T01:20:25;4.75;92.78
72320;SHT30;60269;52.502;16.732;2023-04-30T01:24:31;4.74;92.71
72320;SHT30;60269;52.502;16.732;2023-04-30T01:28:15;4.68;93.18
72320;SHT30;60269;52.502;16.732;2023-04-30T01:31:47;4.75;92.86
72320;SHT30;60269;52.502;16.732;2023-04-30T01:35:22;4.91;92.65
72320;SHT30;60269;52.502;16.732;2023-04-30T01:46:23;5.05;92.14
72320;SHT30;60269;52.502;16.732;2023-04-30T01:53:56;4.91;92.25
72320;SHT30;60269;52.502;16.732;2023-04-30T01:57:32;4.79;92.30
72320;SHT30;60269;52.502;16.732;2023-04-30T02:04:58;4.61;92.62
72320;SHT30;60269;52.502;16.732;2023-04-30T02:08:30;4.51;92.81
72320;SHT30;60269;52.502;16.732;2023-04-30T02:12:02;4.46;93.25
72320;SHT30;60269;52.502;16.732;2023-04-30T02:15:34;4.34;93.51
72320;SHT30;60269;52.502;16.732;2023-04-30T02:19:07;4.40;93.54
72320;SHT30;60269;52.502;16.732;2023-04-30T02:22:38;4.41;93.42
72320;SHT30;60269;52.502;16.732;2023-04-30T02:26:11;4.37;93.60
72320;SHT30;60269;52.502;16.732;2023-04-30T02:29:43;4.33;93.57
72320;SHT30;60269;52.502;16.732;2023-04-30T02:33:15;4.29;93.54
72320;SHT30;60269;52.502;16.732;2023-04-30T02:36:47;4.24;93.29
72320;SHT30;60269;52.502;16.732;2023-04-30T02:40:19;4.10;93.49
72320;SHT30;60269;52.502;16.732;2023-04-30T02:43:51;4.09;93.92
72320;SHT30;60269;52.502;16.732;2023-04-30T02:47:23;4.07;93.39
72320;SHT30;60269;52.502;16.732;2023-04-30T02:50:55;3.96;93.70
72320;SHT30;60269;52.502;16.732;2023-04-30T02:54:27;3.93;94.12
72320;SHT30;60269;52.502;16.732;2023-04-30T02:57:59;3.95;93.66
72320;SHT30;60269;52.502;16.732;2023-04-30T03:01:31;4.00;93.89
72320;SHT30;60269;52.502;16.732;2023-04-30T03:05:03;3.74;94.18
72320;SHT30;60269;52.502;16.732;2023-04-30T03:08:36;3.78;94.29
72320;SHT30;60269;52.502;16.732;2023-04-30T03:12:07;3.74;94.34
72320;SHT30;60269;52.502;16.732;2023-04-30T03:15:40;3.74;94.49
72320;SHT30;60269;52.502;16.732;2023-04-30T03:19:11;3.72;94.27
72320;SHT30;60269;52.502;16.732;2023-04-30T03:22:43;3.79;94.06
72320;SHT30;60269;52.502;16.732;2023-04-30T03:26:16;3.79;94.03
72320;SHT30;60269;52.502;16.732;2023-04-30T03:29:48;3.81;93.86
72320;SHT30;60269;52.502;16.732;2023-04-30T03:33:20;3.75;93.96
72320;SHT30;60269;52.502;16.732;2023-04-30T03:36:52;3.64;93.74
72320;SHT30;60269;52.502;16.732;2023-04-30T03:40:24;3.61;94.16
72320;SHT30;60269;52.502;16.732;2023-04-30T03:43:56;3.52;94.42
72320;SHT30;60269;52.502;16.732;2023-04-30T03:47:28;3.51;94.72
72320;SHT30;60269;52.502;16.732;2023-04-30T03:51:00;3.40;94.51
72320;SHT30;60269;52.502;16.732;2023-04-30T03:54:32;3.30;94.71
72320;SHT30;60269;52.502;16.732;2023-04-30T03:58:05;3.28;95.08
72320;SHT30;60269;52.502;16.732;2023-04-30T04:01:36;3.40;94.93
72320;SHT30;60269;52.502;16.732;2023-04-30T04:05:09;3.45;94.69
72320;SHT30;60269;52.502;16.732;2023-04-30T04:08:42;3.57;94.48
72320;SHT30;60269;52.502;16.732;2023-04-30T04:12:14;3.71;94.34
72320;SHT30;60269;52.502;16.732;2023-04-30T04:15:46;3.74;94.19
72320;SHT30;60269;52.502;16.732;2023-04-30T04:19:18;3.86;93.81
72320;SHT30;60269;52.502;16.732;2023-04-30T04:22:50;3.96;93.31
72320;SHT30;60269;52.502;16.732;2023-04-30T04:26:23;3.99;93.20
72320;SHT30;60269;52.502;16.732;2023-04-30T04:29:56;3.98;92.91
72320;SHT30;60269;52.502;16.732;2023-04-30T04:33:28;3.95;92.96
72320;SHT30;60269;52.502;16.732;2023-04-30T04:37:01;3.99;93.01
72320;SHT30;60269;52.502;16.732;2023-04-30T04:40:34;4.14;92.38
72320;SHT30;60269;52.502;16.732;2023-04-30T04:44:06;4.19;92.24
72320;SHT30;60269;52.502;16.732;2023-04-30T04:47:38;4.27;92.02
72320;SHT30;60269;52.502;16.732;2023-04-30T04:51:10;4.32;91.69
72320;SHT30;60269;52.502;16.732;2023-04-30T04:54:43;4.46;91.59
72320;SHT30;60269;52.502;16.732;2023-04-30T04:58:15;4.56;90.82
72320;SHT30;60269;52.502;16.732;2023-04-30T05:01:47;4.61;90.81
72320;SHT30;60269;52.502;16.732;2023-04-30T05:05:19;4.78;90.76
72320;SHT30;60269;52.502;16.732;2023-04-30T05:08:51;4.89;90.29
72320;SHT30;60269;52.502;16.732;2023-04-30T05:12:23;5.20;89.50
72320;SHT30;60269;52.502;16.732;2023-04-30T05:15:55;5.46;88.48
72320;SHT30;60269;52.502;16.732;2023-04-30T05:19:27;5.87;87.04
72320;SHT30;60269;52.502;16.732;2023-04-30T05:22:59;6.23;85.19
72320;SHT30;60269;52.502;16.732;2023-04-30T05:26:31;6.81;83.20
72320;SHT30;60269;52.502;16.732;2023-04-30T05:30:03;7.26;82.16
72320;SHT30;60269;52.502;16.732;2023-04-30T05:33:35;7.74;80.27
72320;SHT30;60269;52.502;16.732;2023-04-30T05:37:08;8.22;77.51
72320;SHT30;60269;52.502;16.732;2023-04-30T05:40:39;8.63;75.48
72320;SHT30;60269;52.502;16.732;2023-04-30T05:44:15;8.89;74.71
72320;SHT30;60269;52.502;16.732;2023-04-30T05:47:47;9.32;73.38
72320;SHT30;60269;52.502;16.732;2023-04-30T05:51:18;9.54;72.25
72320;SHT30;60269;52.502;16.732;2023-04-30T05:54:51;9.78;71.32
72320;SHT30;60269;52.502;16.732;2023-04-30T05:58:24;9.95;70.87
72320;SHT30;60269;52.502;16.732;2023-04-30T06:01:56;10.16;68.76
72320;SHT30;60269;52.502;16.732;2023-04-30T06:05:28;10.33;69.48
72320;SHT30;60269;52.502;16.732;2023-04-30T06:09:01;10.44;68.55
72320;SHT30;60269;52.502;16.732;2023-04-30T06:12:33;10.61;66.81
72320;SHT30;60269;52.502;16.732;2023-04-30T06:16:06;10.67;66.65
72320;SHT30;60269;52.502;16.732;2023-04-30T06:19:37;10.50;64.39
72320;SHT30;60269;52.502;16.732;2023-04-30T06:23:10;10.41;65.86
72320;SHT30;60269;52.502;16.732;2023-04-30T06:26:41;11.08;64.43
72320;SHT30;60269;52.502;16.732;2023-04-30T06:30:13;10.79;63.78
72320;SHT30;60269;52.502;16.732;2023-04-30T06:33:45;11.12;63.76
72320;SHT30;60269;52.502;16.732;2023-04-30T06:37:17;11.33;61.75
72320;SHT30;60269;52.502;16.732;2023-04-30T06:40:49;11.27;60.86
72320;SHT30;60269;52.502;16.732;2023-04-30T06:44:21;11.60;60.69
72320;SHT30;60269;52.502;16.732;2023-04-30T06:47:54;11.92;59.86
72320;SHT30;60269;52.502;16.732;2023-04-30T06:51:26;12.28;55.54
72320;SHT30;60269;52.502;16.732;2023-04-30T06:54:58;12.37;55.81
72320;SHT30;60269;52.502;16.732;2023-04-30T06:58:31;12.33;57.27
72320;SHT30;60269;52.502;16.732;2023-04-30T07:02:04;12.21;56.94
72320;SHT30;60269;52.502;16.732;2023-04-30T07:05:36;11.97;57.74
72320;SHT30;60269;52.502;16.732;2023-04-30T07:09:08;12.39;56.19
72320;SHT30;60269;52.502;16.732;2023-04-30T07:12:40;12.87;55.31
72320;SHT30;60269;52.502;16.732;2023-04-30T07:16:13;13.70;52.58
72320;SHT30;60269;52.502;16.732;2023-04-30T07:19:47;13.28;51.29
72320;SHT30;60269;52.502;16.732;2023-04-30T07:23:19;12.74;53.89
72320;SHT30;60269;52.502;16.732;2023-04-30T07:26:53;11.16;57.85
72320;SHT30;60269;52.502;16.732;2023-04-30T07:30:25;11.36;60.70
72320;SHT30;60269;52.502;16.732;2023-04-30T07:33:57;11.99;56.93
72320;SHT30;60269;52.502;16.732;2023-04-30T07:37:29;12.56;54.80
72320;SHT30;60269;52.502;16.732;2023-04-30T07:41:01;11.37;54.08
72320;SHT30;60269;52.502;16.732;2023-04-30T07:44:33;11.80;53.73
72320;SHT30;60269;52.502;16.732;2023-04-30T07:48:05;12.01;51.60
72320;SHT30;60269;52.502;16.732;2023-04-30T07:51:38;11.71;52.47
72320;SHT30;60269;52.502;16.732;2023-04-30T07:55:10;11.74;53.31
72320;SHT30;60269;52.502;16.732;2023-04-30T07:58:42;11.63;51.74
72320;SHT30;60269;52.502;16.732;2023-04-30T08:02:14;11.22;52.98
72320;SHT30;60269;52.502;16.732;2023-04-30T08:05:46;11.59;53.43
72320;SHT30;60269;52.502;16.732;2023-04-30T08:09:18;12.15;51.70
72320;SHT30;60269;52.502;16.732;2023-04-30T08:12:50;12.05;50.68
72320;SHT30;60269;52.502;16.732;2023-04-30T08:16:25;11.84;49.46
72320;SHT30;60269;52.502;16.732;2023-04-30T08:19:57;12.21;49.78
72320;SHT30;60269;52.502;16.732;2023-04-30T08:23:29;11.53;52.96
72320;SHT30;60269;52.502;16.732;2023-04-30T08:27:02;11.95;49.92
72320;SHT30;60269;52.502;16.732;2023-04-30T08:30:34;12.50;47.92
72320;SHT30;60269;52.502;16.732;2023-04-30T08:34:06;12.32;48.01
72320;SHT30;60269;52.502;16.732;2023-04-30T08:37:38;12.18;48.13
72320;SHT30;60269;52.502;16.732;2023-04-30T08:41:13;11.78;50.06
72320;SHT30;60269;52.502;16.732;2023-04-30T08:44:46;12.15;47.66
72320;SHT30;60269;52.502;16.732;2023-04-30T08:48:19;12.11;47.44
72320;SHT30;60269;52.502;16.732;2023-04-30T08:51:51;12.26;47.88
72320;SHT30;60269;52.502;16.732;2023-04-30T08:55:26;12.83;47.61
72320;SHT30;60269;52.502;16.732;2023-04-30T08:58:58;13.05;47.18
72320;SHT30;60269;52.502;16.732;2023-04-30T09:02:31;12.83;42.75
72320;SHT30;60269;52.502;16.732;2023-04-30T09:06:03;12.53;44.73
72320;SHT30;60269;52.502;16.732;2023-04-30T09:09:37;13.01;43.98
72320;SHT30;60269;52.502;16.732;2023-04-30T09:13:09;13.44;41.58
72320;SHT30;60269;52.502;16.732;2023-04-30T09:16:47;13.31;40.25
72320;SHT30;60269;52.502;16.732;2023-04-30T09:20:20;13.45;41.01
72320;SHT30;60269;52.502;16.732;2023-04-30T09:23:59;13.12;42.34
72320;SHT30;60269;52.502;16.732;2023-04-30T09:27:31;13.97;40.92
72320;SHT30;60269;52.502;16.732;2023-04-30T09:31:03;14.01;40.35
72320;SHT30;60269;52.502;16.732;2023-04-30T09:34:35;14.31;41.65
72320;SHT30;60269;52.502;16.732;2023-04-30T09:38:25;14.58;38.92
72320;SHT30;60269;52.502;16.732;2023-04-30T09:42:09;14.41;40.52
72320;SHT30;60269;52.502;16.732;2023-04-30T09:45:43;15.27;40.65
72320;SHT30;60269;52.502;16.732;2023-04-30T09:49:27;14.95;41.00
72320;SHT30;60269;52.502;16.732;2023-04-30T09:53:09;14.89;39.88
72320;SHT30;60269;52.502;16.732;2023-04-30T09:56:43;14.98;41.25
72320;SHT30;60269;52.502;16.732;2023-04-30T10:00:16;14.61;37.46
72320;SHT30;60269;52.502;16.732;2023-04-30T10:03:49;14.30;37.49
72320;SHT30;60269;52.502;16.732;2023-04-30T10:07:23;14.78;40.11
72320;SHT30;60269;52.502;16.732;2023-04-30T10:11:04;14.68;39.52
72320;SHT30;60269;52.502;16.732;2023-04-30T10:14:37;15.47;37.87
72320;SHT30;60269;52.502;16.732;2023-04-30T10:18:15;15.26;37.65
72320;SHT30;60269;52.502;16.732;2023-04-30T10:21:48;15.22;35.21
72320;SHT30;60269;52.502;16.732;2023-04-30T10:25:20;15.17;37.13
72320;SHT30;60269;52.502;16.732;2023-04-30T10:28:55;15.64;38.09
72320;SHT30;60269;52.502;16.732;2023-04-30T10:32:45;16.22;36.82
72320;SHT30;60269;52.502;16.732;2023-04-30T10:36:47;16.64;34.61
72320;SHT30;60269;52.502;16.732;2023-04-30T10:40:19;16.94;33.97
72320;SHT30;60269;52.502;16.732;2023-04-30T10:43:55;16.60;36.57
72320;SHT30;60269;52.502;16.732;2023-04-30T10:47:28;16.75;36.25
72320;SHT30;60269;52.502;16.732;2023-04-30T10:51:01;16.88;36.16
72320;SHT30;60269;52.502;16.732;2023-04-30T10:54:34;16.83;35.57
72320;SHT30;60269;52.502;16.732;2023-04-30T11:01:58;17.22;33.53
72320;SHT30;60269;52.502;16.732;2023-04-30T11:05:40;17.05;33.85
72320;SHT30;60269;52.502;16.732;2023-04-30T11:09:12;17.26;32.13
72320;SHT30;60269;52.502;16.732;2023-04-30T11:12:47;17.57;33.69
72320;SHT30;60269;52.502;16.732;2023-04-30T11:16:28;17.00;33.55
72320;SHT30;60269;52.502;16.732;2023-04-30T11:20:00;17.47;33.46
72320;SHT30;60269;52.502;16.732;2023-04-30T11:23:32;18.07;32.93
72320;SHT30;60269;52.502;16.732;2023-04-30T11:27:11;17.97;34.08
72320;SHT30;60269;52.502;16.732;2023-04-30T11:34:26;18.60;32.46
72320;SHT30;60269;52.502;16.732;2023-04-30T11:37:58;17.96;32.49
72320;SHT30;60269;52.502;16.732;2023-04-30T11:41:31;17.35;32.00
72320;SHT30;60269;52.502;16.732;2023-04-30T11:45:09;18.08;31.62
72320;SHT30;60269;52.502;16.732;2023-04-30T11:48:45;17.57;29.06
72320;SHT30;60269;52.502;16.732;2023-04-30T11:52:20;17.32;31.36
72320;SHT30;60269;52.502;16.732;2023-04-30T11:55:52;16.83;31.87
72320;SHT30;60269;52.502;16.732;2023-04-30T11:59:26;17.12;33.59
72320;SHT30;60269;52.502;16.732;2023-04-30T12:02:59;17.87;32.43
72320;SHT30;60269;52.502;16.732;2023-04-30T12:06:32;18.34;31.39
72320;SHT30;60269;52.502;16.732;2023-04-30T12:10:05;18.08;32.14
72320;SHT30;60269;52.502;16.732;2023-04-30T12:13:37;17.33;30.11
72320;SHT30;60269;52.502;16.732;2023-04-30T12:17:09;17.29;30.81
72320;SHT30;60269;52.502;16.732;2023-04-30T12:20:41;18.45;29.93
72320;SHT30;60269;52.502;16.732;2023-04-30T12:24:16;19.20;27.92
72320;SHT30;60269;52.502;16.732;2023-04-30T12:27:52;19.73;28.22
72320;SHT30;60269;52.502;16.732;2023-04-30T12:31:24;19.65;27.24
72320;SHT30;60269;52.502;16.732;2023-04-30T12:35:00;19.00;28.41
72320;SHT30;60269;52.502;16.732;2023-04-30T12:38:32;17.89;28.68
72320;SHT30;60269;52.502;16.732;2023-04-30T12:42:04;18.58;29.58
72320;SHT30;60269;52.502;16.732;2023-04-30T12:49:25;19.54;27.04
72320;SHT30;60269;52.502;16.732;2023-04-30T12:53:01;19.03;27.04
72320;SHT30;60269;52.502;16.732;2023-04-30T12:56:33;18.97;28.12
72320;SHT30;60269;52.502;16.732;2023-04-30T13:00:06;18.85;28.30
72320;SHT30;60269;52.502;16.732;2023-04-30T13:03:39;19.11;28.72
72320;SHT30;60269;52.502;16.732;2023-04-30T13:07:11;19.44;28.37
72320;SHT30;60269;52.502;16.732;2023-04-30T13:10:45;19.31;28.81
72320;SHT30;60269;52.502;16.732;2023-04-30T13:14:19;19.89;26.71
72320;SHT30;60269;52.502;16.732;2023-04-30T13:17:52;18.76;28.79
72320;SHT30;60269;52.502;16.732;2023-04-30T13:21:24;19.55;28.59
72320;SHT30;60269;52.502;16.732;2023-04-30T13:24:57;18.77;29.50
72320;SHT30;60269;52.502;16.732;2023-04-30T13:28:29;18.80;28.61
72320;SHT30;60269;52.502;16.732;2023-04-30T13:32:01;19.13;27.11
72320;SHT30;60269;52.502;16.732;2023-04-30T13:35:34;19.50;28.08
72320;SHT30;60269;52.502;16.732;2023-04-30T13:39:06;19.10;29.56
72320;SHT30;60269;52.502;16.732;2023-04-30T13:42:40;19.14;29.63
72320;SHT30;60269;52.502;16.732;2023-04-30T13:46:13;20.20;29.10
72320;SHT30;60269;52.502;16.732;2023-04-30T13:49:46;20.68;28.14
72320;SHT30;60269;52.502;16.732;2023-04-30T13:53:18;20.03;28.21
72320;SHT30;60269;52.502;16.732;2023-04-30T13:56:50;20.67;28.75
72320;SHT30;60269;52.502;16.732;2023-04-30T14:00:22;20.70;26.65
72320;SHT30;60269;52.502;16.732;2023-04-30T14:03:57;20.34;25.97
72320;SHT30;60269;52.502;16.732;2023-04-30T14:07:31;20.05;26.57
72320;SHT30;60269;52.502;16.732;2023-04-30T14:11:02;21.06;26.25
72320;SHT30;60269;52.502;16.732;2023-04-30T14:14:34;20.57;26.10
72320;SHT30;60269;52.502;16.732;2023-04-30T14:18:09;19.61;26.87
72320;SHT30;60269;52.502;16.732;2023-04-30T14:21:42;19.35;26.20
72320;SHT30;60269;52.502;16.732;2023-04-30T14:25:13;19.59;25.33
72320;SHT30;60269;52.502;16.732;2023-04-30T14:28:48;19.72;26.75
72320;SHT30;60269;52.502;16.732;2023-04-30T14:32:19;19.32;27.95
72320;SHT30;60269;52.502;16.732;2023-04-30T14:35:52;19.81;26.92
72320;SHT30;60269;52.502;16.732;2023-04-30T14:39:25;19.78;25.64
72320;SHT30;60269;52.502;16.732;2023-04-30T14:42:57;19.52;26.97
72320;SHT30;60269;52.502;16.732;2023-04-30T14:46:29;18.32;27.92
72320;SHT30;60269;52.502;16.732;2023-04-30T14:50:02;19.45;28.14
72320;SHT30;60269;52.502;16.732;2023-04-30T14:53:35;19.64;26.98
72320;SHT30;60269;52.502;16.732;2023-04-30T14:57:07;18.67;28.57
72320;SHT30;60269;52.502;16.732;2023-04-30T15:00:39;19.02;28.10
72320;SHT30;60269;52.502;16.732;2023-04-30T15:04:12;19.17;27.69
72320;SHT30;60269;52.502;16.732;2023-04-30T15:07:44;19.57;27.88
72320;SHT30;60269;52.502;16.732;2023-04-30T15:11:18;19.10;28.95
72320;SHT30;60269;52.502;16.732;2023-04-30T15:14:51;19.14;27.97
72320;SHT30;60269;52.502;16.732;2023-04-30T15:18:23;19.86;27.19
72320;SHT30;60269;52.502;16.732;2023-04-30T15:21:55;20.43;26.52
72320;SHT30;60269;52.502;16.732;2023-04-30T15:25:27;19.61;27.42
72320;SHT30;60269;52.502;16.732;2023-04-30T15:29:00;18.79;26.66
72320;SHT30;60269;52.502;16.732;2023-04-30T15:32:32;19.35;27.38
72320;SHT30;60269;52.502;16.732;2023-04-30T15:36:04;18.58;28.62
72320;SHT30;60269;52.502;16.732;2023-04-30T15:39:36;17.65;29.14
72320;SHT30;60269;52.502;16.732;2023-04-30T15:43:08;17.39;28.97
72320;SHT30;60269;52.502;16.732;2023-04-30T15:46:40;18.00;28.56
72320;SHT30;60269;52.502;16.732;2023-04-30T15:50:12;17.46;29.30
72320;SHT30;60269;52.502;16.732;2023-04-30T15:53:45;18.58;29.47
72320;SHT30;60269;52.502;16.732;2023-04-30T15:57:17;18.90;28.73
72320;SHT30;60269;52.502;16.732;2023-04-30T16:00:49;18.79;29.05
72320;SHT30;60269;52.502;16.732;2023-04-30T16:04:21;18.93;28.46
72320;SHT30;60269;52.502;16.732;2023-04-30T16:07:53;17.84;28.25
72320;SHT30;60269;52.502;16.732;2023-04-30T16:11:25;17.98;29.02
72320;SHT30;60269;52.502;16.732;2023-04-30T16:14:57;17.91;28.84
72320;SHT30;60269;52.502;16.732;2023-04-30T16:18:29;18.32;28.30
72320;SHT30;60269;52.502;16.732;2023-04-30T16:22:01;18.28;28.96
72320;SHT30;60269;52.502;16.732;2023-04-30T16:25:33;18.00;28.98
72320;SHT30;60269;52.502;16.732;2023-04-30T16:29:05;17.53;28.82
72320;SHT30;60269;52.502;16.732;2023-04-30T16:32:37;17.19;28.94
72320;SHT30;60269;52.502;16.732;2023-04-30T16:36:09;17.39;29.57
72320;SHT30;60269;52.502;16.732;2023-04-30T16:39:41;18.08;29.33
72320;SHT30;60269;52.502;16.732;2023-04-30T16:43:13;18.25;29.62
72320;SHT30;60269;52.502;16.732;2023-04-30T16:46:45;18.29;29.76
72320;SHT30;60269;52.502;16.732;2023-04-30T16:50:17;18.39;30.07
72320;SHT30;60269;52.502;16.732;2023-04-30T16:53:49;18.17;29.97
72320;SHT30;60269;52.502;16.732;2023-04-30T16:57:22;17.52;30.69
72320;SHT30;60269;52.502;16.732;2023-04-30T17:00:55;16.94;31.29
72320;SHT30;60269;52.502;16.732;2023-04-30T17:04:28;16.22;32.67
72320;SHT30;60269;52.502;16.732;2023-04-30T17:07:59;16.85;32.26
72320;SHT30;60269;52.502;16.732;2023-04-30T17:11:32;16.22;32.20
72320;SHT30;60269;52.502;16.732;2023-04-30T17:15:05;16.09;32.67
72320;SHT30;60269;52.502;16.732;2023-04-30T17:18:43;16.12;32.92
72320;SHT30;60269;52.502;16.732;2023-04-30T17:22:19;15.92;33.12
72320;SHT30;60269;52.502;16.732;2023-04-30T17:25:53;15.85;33.83
72320;SHT30;60269;52.502;16.732;2023-04-30T17:29:25;15.77;34.57
72320;SHT30;60269;52.502;16.732;2023-04-30T17:32:57;15.48;35.44
72320;SHT30;60269;52.502;16.732;2023-04-30T17:36:31;14.61;35.92
72320;SHT30;60269;52.502;16.732;2023-04-30T17:40:03;14.31;36.57
72320;SHT30;60269;52.502;16.732;2023-04-30T17:43:36;14.09;37.08
72320;SHT30;60269;52.502;16.732;2023-04-30T17:47:08;13.89;37.97
72320;SHT30;60269;52.502;16.732;2023-04-30T17:50:40;13.69;38.78
72320;SHT30;60269;52.502;16.732;2023-04-30T17:54:12;13.41;39.75
72320;SHT30;60269;52.502;16.732;2023-04-30T17:57:44;12.97;40.69
72320;SHT30;60269;52.502;16.732;2023-04-30T18:01:16;12.56;42.28
72320;SHT30;60269;52.502;16.732;2023-04-30T18:04:48;12.06;43.73
72320;SHT30;60269;52.502;16.732;2023-04-30T18:08:20;11.46;45.56
72320;SHT30;60269;52.502;16.732;2023-04-30T18:11:52;10.62;47.92
72320;SHT30;60269;52.502;16.732;2023-04-30T18:15:25;10.21;49.38
72320;SHT30;60269;52.502;16.732;2023-04-30T18:18:57;9.75;51.09
72320;SHT30;60269;52.502;16.732;2023-04-30T18:22:29;9.59;51.88
72320;SHT30;60269;52.502;16.732;2023-04-30T18:26:01;9.38;52.94
72320;SHT30;60269;52.502;16.732;2023-04-30T18:29:33;9.18;54.05
72320;SHT30;60269;52.502;16.732;2023-04-30T18:33:06;9.03;54.55
72320;SHT30;60269;52.502;16.732;2023-04-30T18:36:39;8.81;55.75
72320;SHT30;60269;52.502;16.732;2023-04-30T18:40:13;8.66;56.16
72320;SHT30;60269;52.502;16.732;2023-04-30T18:43:46;8.48;57.10
72320;SHT30;60269;52.502;16.732;2023-04-30T18:47:18;8.24;57.89
72320;SHT30;60269;52.502;16.732;2023-04-30T18:50:50;8.08;58.70
72320;SHT30;60269;52.502;16.732;2023-04-30T18:54:22;7.94;59.64
72320;SHT30;60269;52.502;16.732;2023-04-30T18:57:55;7.70;59.18
72320;SHT30;60269;52.502;16.732;2023-04-30T19:01:27;7.70;59.42
72320;SHT30;60269;52.502;16.732;2023-04-30T19:04:59;7.50;59.32
72320;SHT30;60269;52.502;16.732;2023-04-30T19:08:31;7.38;60.47
72320;SHT30;60269;52.502;16.732;2023-04-30T19:12:03;7.26;61.44
72320;SHT30;60269;52.502;16.732;2023-04-30T19:15:35;7.32;61.99
72320;SHT30;60269;52.502;16.732;2023-04-30T19:19:07;7.05;62.75
72320;SHT30;60269;52.502;16.732;2023-04-30T19:22:39;7.04;63.25
72320;SHT30;60269;52.502;16.732;2023-04-30T19:26:12;6.98;63.70
72320;SHT30;60269;52.502;16.732;2023-04-30T19:29:45;6.69;64.43
72320;SHT30;60269;52.502;16.732;2023-04-30T19:33:21;6.76;64.47
72320;SHT30;60269;52.502;16.732;2023-04-30T19:36:53;6.73;64.78
72320;SHT30;60269;52.502;16.732;2023-04-30T19:40:26;6.76;64.71
72320;SHT30;60269;52.502;16.732;2023-04-30T19:43:58;6.85;63.93
72320;SHT30;60269;52.502;16.732;2023-04-30T19:47:30;6.80;64.01
72320;SHT30;60269;52.502;16.732;2023-04-30T19:51:03;6.76;64.61
72320;SHT30;60269;52.502;16.732;2023-04-30T19:54:36;6.66;64.63
72320;SHT30;60269;52.502;16.732;2023-04-30T19:58:08;6.58;64.62
72320;SHT30;60269;52.502;16.732;2023-04-30T20:01:40;6.58;63.80
72320;SHT30;60269;52.502;16.732;2023-04-30T20:05:13;6.49;63.95
72320;SHT30;60269;52.502;16.732;2023-04-30T20:08:45;6.29;64.13
72320;SHT30;60269;52.502;16.732;2023-04-30T20:12:17;6.16;64.73
72320;SHT30;60269;52.502;16.732;2023-04-30T20:15:50;6.01;65.14
72320;SHT30;60269;52.502;16.732;2023-04-30T20:19:22;5.85;65.53
72320;SHT30;60269;52.502;16.732;2023-04-30T20:22:54;5.90;65.11
72320;SHT30;60269;52.502;16.732;2023-04-30T20:26:27;5.79;65.43
72320;SHT30;60269;52.502;16.732;2023-04-30T20:29:59;5.67;66.10
72320;SHT30;60269;52.502;16.732;2023-04-30T20:33:32;5.47;66.96
72320;SHT30;60269;52.502;16.732;2023-04-30T20:37:04;5.43;67.46
72320;SHT30;60269;52.502;16.732;2023-04-30T20:40:36;5.42;67.59
72320;SHT30;60269;52.502;16.732;2023-04-30T20:44:11;5.48;67.55
72320;SHT30;60269;52.502;16.732;2023-04-30T20:47:44;5.47;67.53
72320;SHT30;60269;52.502;16.732;2023-04-30T20:51:17;5.48;67.59
72320;SHT30;60269;52.502;16.732;2023-04-30T20:54:49;5.32;67.81
72320;SHT30;60269;52.502;16.732;2023-04-30T20:58:21;5.15;68.72
72320;SHT30;60269;52.502;16.732;2023-04-30T21:01:53;5.09;69.06
72320;SHT30;60269;52.502;16.732;2023-04-30T21:05:25;4.99;69.42
72320;SHT30;60269;52.502;16.732;2023-04-30T21:08:59;4.81;70.16
72320;SHT30;60269;52.502;16.732;2023-04-30T21:12:31;4.58;71.14
72320;SHT30;60269;52.502;16.732;2023-04-30T21:16:04;4.67;71.20
72320;SHT30;60269;52.502;16.732;2023-04-30T21:19:36;4.77;70.97
72320;SHT30;60269;52.502;16.732;2023-04-30T21:23:08;4.85;70.15
72320;SHT30;60269;52.502;16.732;2023-04-30T21:26:40;4.71;70.79
72320;SHT30;60269;52.502;16.732;2023-04-30T21:30:12;4.58;71.39
72320;SHT30;60269;52.502;16.732;2023-04-30T21:33:47;4.41;72.09
72320;SHT30;60269;52.502;16.732;2023-04-30T21:37:19;4.19;73.19
72320;SHT30;60269;52.502;16.732;2023-04-30T21:40:51;4.14;73.65
72320;SHT30;60269;52.502;16.732;2023-04-30T21:44:25;3.82;75.09
72320;SHT30;60269;52.502;16.732;2023-04-30T21:47:57;3.64;76.02
72320;SHT30;60269;52.502;16.732;2023-04-30T21:51:31;3.60;76.30
72320;SHT30;60269;52.502;16.732;2023-04-30T21:55:03;3.51;76.69
72320;SHT30;60269;52.502;16.732;2023-04-30T21:58:36;3.20;77.74
72320;SHT30;60269;52.502;16.732;2023-04-30T22:02:08;3.13;78.33
72320;SHT30;60269;52.502;16.732;2023-04-30T22:05:54;3.23;78.09
72320;SHT30;60269;52.502;16.732;2023-04-30T22:09:26;3.38;77.69
72320;SHT30;60269;52.502;16.732;2023-04-30T22:13:04;3.24;78.55
72320;SHT30;60269;52.502;16.732;2023-04-30T22:16:36;3.23;78.44
72320;SHT30;60269;52.502;16.732;2023-04-30T22:20:09;3.28;78.04
72320;SHT30;60269;52.502;16.732;2023-04-30T22:23:40;3.19;78.64
72320;SHT30;60269;52.502;16.732;2023-04-30T22:27:13;3.06;79.08
72320;SHT30;60269;52.502;16.732;2023-04-30T22:30:44;2.91;79.51
72320;SHT30;60269;52.502;16.732;2023-04-30T22:34:17;2.89;79.42
72320;SHT30;60269;52.502;16.732;2023-04-30T22:37:50;2.91;79.20
72320;SHT30;60269;52.502;16.732;2023-04-30T22:41:22;2.76;79.79